Flight Track Log - Related Links

Times and Time Zones

All times are in EDT time to prevent confusion due to time zone crossing. See the FFT920 flight status page for this flight to view local times or setup timezone preferences in your user account.

Time Position Orientation Groundspeed Altitude Reporting Facility
EDT Latitude Longitude Course Direction KTS MPH feet Rate Location/Type
Thu 08:51:30 AM 35.8664 -78.8139 252° West 171 197 1,200  Level Washington Center
Thu 08:52:36 AM 35.8525 -78.8672 252° West 218 251 3,000 1,980 Climbing Washington Center
Thu 08:53:10 AM 35.8767 -78.8989 313° West 257 296 4,500 2,653 Climbing Washington Center
Thu 08:54:11 AM 35.9297 -78.9422 327° Northwest 255 293 7,200 2,803 Climbing Washington Center
Thu 08:55:12 AM 35.9978 -78.8989 27° Northeast 223 257 10,200 2,459 Climbing Washington Center
Thu 08:56:13 AM 36.0744 -78.8456 29° Northeast 244 281 12,200 2,132 Climbing Washington Center
Thu 08:57:13 AM 36.1531 -78.7844 32° Northeast 295 339 14,500 2,521 Climbing Washington Center
Thu 08:58:12 AM 36.2467 -78.7161 30° Northeast 337 388 17,200 2,150 Climbing Washington Center
Thu 08:59:13 AM 36.3381 -78.6500 30° Northeast 357 411 18,800 1,736 Climbing Washington Center
Thu 09:00:13 AM 36.4336 -78.5894 27° Northeast 373 429 20,700 1,932 Climbing Washington Center
Thu 09:01:11 AM 36.5411 -78.5494 17° North 380 437 22,600 1,866 Climbing Washington Center
Thu 09:02:12 AM 36.6506 -78.5122 15° North 396 456 24,400 1,820 Climbing Washington Center
Thu 09:03:13 AM 36.7581 -78.4619 21° North 409 471 26,300 1,361 Climbing Washington Center
Thu 09:04:11 AM 36.8581 -78.3850 32° Northeast 404 465 27,100 1,311 Climbing Washington Center
Thu 09:05:12 AM 36.9536 -78.3028 35° Northeast 409 471 28,900 950 Climbing Washington Center
Thu 09:06:11 AM 37.0492 -78.2256 33° Northeast 415 478 29,000 50 Climbing Washington Center
Thu 09:07:11 AM 37.1428 -78.1506 33° Northeast 415 478 29,000 148 Level Washington Center
Thu 09:08:13 AM 37.2403 -78.0728 32° Northeast 410 472 29,300 900 Climbing Washington Center
Thu 09:09:11 AM 37.3336 -77.9922 34° Northeast 410 472 30,800 864 Climbing Washington Center
Thu 09:10:11 AM 37.4314 -77.9117 33° Northeast 410 472 31,000 100 Climbing Washington Center
Thu 09:11:11 AM 37.5289 -77.8308 33° Northeast 410 472 31,000  Level Washington Center
Thu 09:12:12 AM 37.6264 -77.7419 36° Northeast 415 478 31,000  Level Washington Center
Thu 09:13:13 AM 37.7217 -77.6528 37° Northeast 420 483 31,000  Level Washington Center
Thu 09:14:11 AM 37.8192 -77.5661 35° Northeast 420 483 31,000  Level Washington Center
Thu 09:15:12 AM 37.9144 -77.4789 36° Northeast 420 483 31,000  Level Washington Center
Thu 09:16:13 AM 38.0097 -77.3917 36° Northeast 420 483 31,000  Level Washington Center
Thu 09:17:13 AM 38.1025 -77.3042 37° Northeast 420 483 31,000  Level Washington Center
Thu 09:18:11 AM 38.1978 -77.2192 35° Northeast 415 478 31,000  Level Washington Center
Thu 09:19:12 AM 38.2947 -77.1261 37° Northeast 415 478 31,000  Level Washington Center
Thu 09:20:13 AM 38.3897 -77.0406 35° Northeast 415 478 31,000 -958 Level Washington Center
Thu 09:21:11 AM 38.4844 -76.9522 36° Northeast 415 478 29,100 -2,067 Descending Washington Center
Thu 09:22:12 AM 38.5772 -76.8664 36° Northeast 415 478 26,900 -2,115 Descending Washington Center
Thu 09:23:13 AM 38.6697 -76.7803 36° Northeast 415 478 24,800 -1,884 Descending Washington Center
Thu 09:24:13 AM 38.7231 -76.6586 61° Northeast 396 456 23,100 -1,750 Descending Washington Center
Thu 09:25:13 AM 38.7492 -76.5286 76° East 373 429 21,300 -1,780 Descending Washington Center
Thu 09:26:11 AM 38.7750 -76.4011 75° East 373 429 19,600 -1,627 Descending Washington Center
Thu 09:27:11 AM 38.8031 -76.2761 74° East 368 423 18,100 -1,289 Descending Washington Center
Thu 09:28:12 AM 38.8203 -76.1806 77° East 355 409 17,000 -1,377 Descending Washington Center
Thu 09:29:13 AM 38.8500 -76.0475 74° East 350 403 15,300 -1,041 Descending Washington Center
Thu 09:30:13 AM 38.8733 -75.9275 76° East 344 396 14,900 -700 Descending Washington Center
Thu 09:31:13 AM 38.9089 -75.8183 67° East 339 390 13,900 -1,017 Descending Washington Center
Thu 09:32:11 AM 38.9944 -75.7811 19° North 297 342 12,900 -702 Descending Washington Center
Thu 09:34:04 AM 39.1667 -75.7000 20° North 318 366 11,900 -312 Descending Philadelphia TRACON
Thu 09:35:04 AM 39.2500 -75.6500 25° Northeast 324 373 12,000 50 Climbing Philadelphia TRACON
Thu 09:36:04 AM 39.3167 -75.6000 30° Northeast 323 372 12,000  Level Philadelphia TRACON
Thu 09:37:04 AM 39.4000 -75.5333 32° Northeast 323 372 12,000 -47 Level Philadelphia TRACON
Thu 09:38:11 AM 39.4833 -75.4667 32° Northeast 323 372 11,900 -48 Descending Philadelphia TRACON
Thu 09:39:10 AM 39.5667 -75.4167 25° Northeast 324 373 11,900 -101 Level Philadelphia TRACON
Thu 09:40:10 AM 39.6333 -75.3500 38° Northeast 320 368 11,700 -694 Descending Philadelphia TRACON
Thu 09:41:11 AM 39.7167 -75.3000 25° Northeast 294 338 10,500 -1,304 Descending Philadelphia TRACON
Thu 09:42:05 AM 39.7667 -75.2500 38° Northeast 290 334 9,200 -950 Descending Philadelphia TRACON
Thu 09:43:11 AM 39.8500 -75.1833 32° Northeast 294 338 8,600 -1,048 Descending Philadelphia TRACON
Thu 09:44:11 AM 39.9167 -75.1333 30° Northeast 289 333 7,000 -1,550 Descending Philadelphia TRACON
Thu 09:45:11 AM 39.9833 -75.0833 30° Northeast 283 326 5,500 -1,333 Descending Philadelphia TRACON
Thu 09:46:17 AM 40.0500 -75.0333 30° Northeast 265 305 4,200 -1,238 Descending Philadelphia TRACON
Thu 09:47:17 AM 40.1167 -74.9667 37° Northeast 267 307 2,900 -1,000 Descending Philadelphia TRACON
Thu 09:48:11 AM 40.1667 -74.9333 27° Northeast 224 258 2,300 -750 Descending Philadelphia TRACON
Thu 09:49:17 AM 40.2167 -74.9000 27° Northeast 207 238 1,400 -789 Descending Philadelphia TRACON
Thu 09:50:05 AM 40.2500 -74.8500 49° Northeast 159 183 800 -750 Descending Philadelphia TRACON
Thu 09:52:00 AM 40.2667 -74.8000 45° Northeast  Level FlightAware Approximate

Login

Don't have an account? Register now (free) for customized features, flight alerts, and more!